Time;durP1;ratioP1;P1;durP2;ratioP2;P2;SDS_P1;SDS_P2;PMS_P1;PMS_P2;Temp;Humidity;BMP_temperature;BMP_pressure;BME280_temperature;BME280_humidity;BME280_pressure;Samples;Min_cycle;Max_cycle;Signal;HPM_P1;HPM_P2
2022/05/09 00:00:28;;;;;;;21.67;16.13;;;10.50;99.90;;;;;;5029936;28;20029;-50
2022/05/09 00:02:54;;;;;;;22.90;16.35;;;10.50;99.90;;;;;;5031744;28;20025;-52
2022/05/09 00:05:24;;;;;;;18.40;15.52;;;10.50;99.90;;;;;;5015864;28;20025;-52
2022/05/09 00:07:50;;;;;;;25.63;17.40;;;10.60;99.90;;;;;;5030321;28;20021;-55
2022/05/09 00:10:19;;;;;;;22.20;18.00;;;10.60;99.90;;;;;;5031720;28;20040;-54
2022/05/09 00:12:45;;;;;;;24.00;16.00;;;10.60;99.90;;;;;;5030220;28;20140;-56
2022/05/09 00:15:13;;;;;;;28.23;16.92;;;10.60;99.90;;;;;;5019685;28;20057;-53
2022/05/09 00:17:39;;;;;;;20.67;17.30;;;10.70;99.90;;;;;;5028378;28;20394;-52
2022/05/09 00:20:06;;;;;;;19.00;15.80;;;10.70;99.90;;;;;;5032050;28;20044;-52
2022/05/09 00:22:41;;;;;;;20.00;16.55;;;10.70;99.90;;;;;;5017391;28;20029;-55
2022/05/09 00:25:07;;;;;;;26.33;17.25;;;10.70;99.90;;;;;;5031321;28;20116;-54
2022/05/09 00:27:32;;;;;;;18.25;15.63;;;10.70;99.90;;;;;;5015892;28;20113;-50
2022/05/09 00:29:58;;;;;;;20.67;16.88;;;10.70;99.90;;;;;;5013208;28;20034;-54
2022/05/09 00:32:24;;;;;;;19.33;16.90;;;10.70;99.90;;;;;;5012184;28;20080;-53
2022/05/09 00:34:49;;;;;;;27.10;16.23;;;10.80;99.90;;;;;;5015911;28;20025;-52
2022/05/09 00:37:15;;;;;;;23.95;17.02;;;10.80;99.90;;;;;;5018985;28;20026;-53
2022/05/09 00:39:41;;;;;;;22.73;18.00;;;10.80;99.90;;;;;;5013010;28;20022;-50
2022/05/09 00:42:12;;;;;;;21.95;18.38;;;10.90;99.90;;;;;;5028911;28;20163;-51
2022/05/09 00:44:38;;;;;;;22.45;16.63;;;10.90;99.90;;;;;;5016547;28;20021;-52
2022/05/09 00:47:04;;;;;;;22.48;16.77;;;11.00;99.90;;;;;;5020321;28;20037;-57
2022/05/09 00:49:46;;;;;;;23.20;16.02;;;11.00;99.90;;;;;;5013195;28;20028;-51
2022/05/09 00:52:20;;;;;;;16.55;14.85;;;11.00;99.90;;;;;;5012109;28;20018;-53
2022/05/09 00:54:56;;;;;;;25.63;17.35;;;11.00;99.90;;;;;;5011909;28;20105;-53
2022/05/09 00:57:53;;;;;;;28.95;16.58;;;11.00;99.90;;;;;;5025344;28;20083;-50
2022/05/09 01:00:22;;;;;;;20.52;16.52;;;11.10;99.90;;;;;;5030653;28;20038;-51
2022/05/09 01:02:59;;;;;;;22.10;18.17;;;11.00;99.90;;;;;;5031536;28;20022;-53
2022/05/09 01:05:28;;;;;;;20.48;17.10;;;11.00;99.90;;;;;;5029498;28;20105;-51
2022/05/09 01:07:55;;;;;;;25.33;18.27;;;11.00;99.90;;;;;;5035967;28;20519;-52
2022/05/09 01:10:27;;;;;;;20.50;16.83;;;11.00;99.90;;;;;;5048474;28;20032;-53
2022/05/09 01:12:53;;;;;;;18.90;16.58;;;11.00;99.90;;;;;;5012528;28;20022;-50
2022/05/09 01:15:19;;;;;;;22.17;17.33;;;11.00;99.90;;;;;;5016160;28;20477;-52
2022/05/09 01:17:47;;;;;;;20.38;14.77;;;10.90;99.90;;;;;;5014773;28;20080;-53
2022/05/09 01:20:14;;;;;;;18.50;15.38;;;10.90;99.90;;;;;;5019995;28;20025;-50
2022/05/09 01:22:41;;;;;;;19.08;15.35;;;10.90;99.90;;;;;;5034375;28;20075;-53
2022/05/09 01:25:14;;;;;;;30.67;17.05;;;10.90;99.90;;;;;;5022612;28;20057;-51
2022/05/09 01:27:43;;;;;;;20.27;16.42;;;10.80;99.90;;;;;;5033336;28;20087;-53
2022/05/09 01:30:18;;;;;;;20.75;16.85;;;10.80;99.90;;;;;;5019104;28;20116;-51
2022/05/09 01:33:04;;;;;;;23.20;19.08;;;10.80;99.90;;;;;;5018030;28;20029;-52
2022/05/09 01:35:57;;;;;;;23.05;18.13;;;10.80;99.90;;;;;;5029280;28;20052;-55
2022/05/09 01:38:52;;;;;;;23.33;19.48;;;10.90;99.90;;;;;;5018261;28;20037;-53
2022/05/09 01:41:18;;;;;;;26.23;19.20;;;10.90;99.90;;;;;;5031650;28;20079;-50
2022/05/09 01:43:48;;;;;;;27.73;20.83;;;11.00;99.90;;;;;;5029633;28;20026;-50
2022/05/09 01:46:23;;;;;;;26.55;21.05;;;11.00;99.90;;;;;;5026047;28;20010;-53
2022/05/09 01:51:34;;;;;;;20.63;16.80;;;11.00;99.90;;;;;;5018100;28;20037;-51
2022/05/09 01:54:00;;;;;;;20.88;16.67;;;10.90;99.90;;;;;;5018026;28;20022;-53
2022/05/09 01:56:31;;;;;;;19.05;16.23;;;10.80;99.90;;;;;;5022644;28;20536;-50
2022/05/09 01:58:58;;;;;;;24.52;15.52;;;10.80;99.90;;;;;;5028213;28;20030;-51
2022/05/09 02:01:26;;;;;;;18.75;14.55;;;10.90;99.90;;;;;;5017794;28;20037;-54
2022/05/09 02:03:53;;;;;;;20.50;16.42;;;10.80;99.90;;;;;;5017915;28;20473;-52
2022/05/09 02:06:20;;;;;;;18.80;15.43;;;10.70;99.90;;;;;;5021167;28;20514;-52
2022/05/09 02:08:47;;;;;;;24.75;16.73;;;10.70;99.90;;;;;;5037312;28;20069;-49
2022/05/09 02:11:13;;;;;;;20.38;17.27;;;10.60;99.90;;;;;;5037618;28;20033;-52
2022/05/09 02:13:39;;;;;;;19.20;16.38;;;10.60;99.90;;;;;;5035888;28;20656;-51
2022/05/09 02:16:05;;;;;;;21.73;16.92;;;10.50;99.90;;;;;;5034541;28;20080;-51
2022/05/09 02:18:33;;;;;;;25.73;15.27;;;10.50;99.90;;;;;;5049184;28;20052;-52
2022/05/09 02:20:58;;;;;;;19.63;15.45;;;10.50;99.90;;;;;;5016314;28;20038;-53
2022/05/09 02:23:24;;;;;;;20.27;14.68;;;10.40;99.90;;;;;;5020794;28;20041;-53
2022/05/09 02:25:50;;;;;;;16.88;15.07;;;10.30;99.90;;;;;;5035918;28;20029;-51
2022/05/09 02:28:16;;;;;;;24.13;15.25;;;10.30;99.90;;;;;;5033709;28;20022;-53
2022/05/09 02:30:42;;;;;;;19.05;17.02;;;10.30;99.90;;;;;;5017598;28;20521;-53
2022/05/09 02:33:10;;;;;;;20.00;16.10;;;10.30;99.90;;;;;;5017868;28;20042;-54
2022/05/09 02:35:37;;;;;;;21.17;17.52;;;10.30;99.90;;;;;;5033338;28;20029;-51
2022/05/09 02:38:03;;;;;;;25.02;16.92;;;10.20;99.90;;;;;;5033566;28;20132;-49
2022/05/09 02:40:29;;;;;;;20.45;17.30;;;10.20;99.90;;;;;;5026624;28;20026;-51
2022/05/09 02:42:59;;;;;;;22.35;17.00;;;10.10;99.90;;;;;;5013281;28;20072;-54
2022/05/09 02:45:25;;;;;;;24.45;16.67;;;10.10;99.90;;;;;;5031931;28;20105;-53
2022/05/09 02:47:51;;;;;;;25.17;16.52;;;10.10;99.90;;;;;;5024324;28;20025;-51
2022/05/09 02:50:19;;;;;;;20.85;16.23;;;10.10;99.90;;;;;;5020845;28;20034;-52
2022/05/09 02:52:45;;;;;;;22.60;16.20;;;10.00;99.90;;;;;;5032677;28;20087;-52
2022/05/09 02:55:12;;;;;;;18.73;15.60;;;10.10;99.90;;;;;;5022018;28;20100;-52
2022/05/09 02:57:38;;;;;;;20.35;16.25;;;10.00;99.90;;;;;;5032569;28;20428;-53
2022/05/09 03:00:07;;;;;;;21.05;17.00;;;10.00;99.90;;;;;;5032007;28;20025;-53
2022/05/09 03:02:33;;;;;;;22.38;15.85;;;10.00;99.90;;;;;;5032810;28;20022;-51
2022/05/09 03:04:58;;;;;;;17.42;14.98;;;10.00;99.90;;;;;;5031497;28;20018;-56
2022/05/09 03:07:24;;;;;;;16.67;14.02;;;9.90;99.90;;;;;;5032334;28;20021;-51
2022/05/09 03:09:50;;;;;;;16.05;13.32;;;9.90;99.90;;;;;;5032224;28;20509;-53
2022/05/09 03:12:19;;;;;;;15.95;14.27;;;9.90;99.90;;;;;;5030851;28;20448;-51
2022/05/09 03:14:47;;;;;;;18.92;15.57;;;9.90;99.90;;;;;;5019978;28;20021;-54
2022/05/09 03:17:13;;;;;;;17.38;14.68;;;9.80;99.90;;;;;;5012349;28;20519;-49
2022/05/09 03:19:39;;;;;;;29.63;14.63;;;9.80;99.90;;;;;;5012635;28;20157;-51
2022/05/09 03:22:05;;;;;;;21.33;16.63;;;9.80;99.90;;;;;;5018097;28;20108;-52
2022/05/09 03:24:31;;;;;;;23.35;17.10;;;9.90;99.90;;;;;;5021029;28;20053;-52
2022/05/09 03:26:59;;;;;;;19.17;17.15;;;9.90;99.90;;;;;;5026635;28;20037;-52
2022/05/09 03:29:26;;;;;;;20.33;15.18;;;9.90;99.90;;;;;;5013708;28;20057;-55
2022/05/09 03:31:54;;;;;;;18.23;14.43;;;9.90;99.90;;;;;;5014942;28;20041;-49
2022/05/09 03:34:20;;;;;;;19.63;15.38;;;9.90;99.90;;;;;;5022460;28;20038;-51
2022/05/09 03:36:46;;;;;;;15.55;13.68;;;9.90;99.90;;;;;;5014063;28;20133;-54
2022/05/09 03:39:12;;;;;;;18.00;15.77;;;9.90;99.90;;;;;;5031854;28;20116;-52
2022/05/09 03:41:38;;;;;;;20.90;14.98;;;9.90;99.90;;;;;;5030326;28;20040;-52
2022/05/09 03:44:05;;;;;;;25.80;15.95;;;9.90;99.90;;;;;;5022262;28;20032;-51
2022/05/09 03:46:31;;;;;;;18.08;14.82;;;9.90;99.90;;;;;;5029051;28;20037;-53
2022/05/09 03:48:57;;;;;;;18.58;15.80;;;9.90;99.90;;;;;;5022178;28;20033;-49
2022/05/09 03:51:22;;;;;;;18.50;14.98;;;9.90;99.90;;;;;;5028465;28;20034;-52
2022/05/09 03:53:49;;;;;;;18.75;15.05;;;9.90;99.90;;;;;;5026001;28;20025;-52
2022/05/09 03:56:15;;;;;;;21.13;16.40;;;10.00;99.90;;;;;;5011168;28;20033;-50
2022/05/09 03:58:40;;;;;;;17.20;15.32;;;10.00;99.90;;;;;;5022110;28;20500;-53
2022/05/09 04:01:08;;;;;;;17.25;14.10;;;10.00;99.90;;;;;;5031515;28;20026;-53
2022/05/09 04:03:34;;;;;;;16.88;13.68;;;9.90;99.90;;;;;;5032390;28;20096;-53
2022/05/09 04:06:00;;;;;;;18.65;13.68;;;10.00;99.90;;;;;;5032512;28;20117;-55
2022/05/09 04:08:25;;;;;;;18.13;13.73;;;10.00;99.90;;;;;;5032473;28;20033;-52
2022/05/09 04:10:54;;;;;;;15.52;13.93;;;10.00;99.90;;;;;;5032473;28;20369;-57
2022/05/09 04:13:20;;;;;;;14.40;12.90;;;10.10;99.90;;;;;;5032556;28;20702;-53
2022/05/09 04:18:36;;;;;;;19.30;14.48;;;10.20;99.90;;;;;;5032168;28;20051;-53
2022/05/09 04:21:02;;;;;;;19.10;14.77;;;10.30;99.90;;;;;;5032383;28;20049;-56
2022/05/09 04:23:28;;;;;;;24.77;14.43;;;10.30;99.90;;;;;;5032027;28;20072;-54
2022/05/09 04:25:54;;;;;;;16.33;14.63;;;10.40;99.90;;;;;;5032160;28;20046;-56
2022/05/09 04:28:22;;;;;;;20.70;16.05;;;10.50;99.90;;;;;;5032288;28;20026;-58
2022/05/09 04:30:48;;;;;;;18.83;15.32;;;10.40;99.90;;;;;;5031986;28;20028;-55
2022/05/09 04:33:14;;;;;;;21.48;16.13;;;10.40;99.90;;;;;;5030937;28;20029;-55
2022/05/09 04:35:41;;;;;;;19.13;17.02;;;10.50;99.90;;;;;;5031900;28;20037;-54
2022/05/09 04:38:13;;;;;;;21.58;17.30;;;10.60;99.90;;;;;;5032083;28;20029;-55
2022/05/09 04:40:40;;;;;;;21.48;14.88;;;10.60;99.90;;;;;;5030463;28;20033;-52
2022/05/09 04:43:06;;;;;;;22.17;17.63;;;10.70;99.90;;;;;;5032046;28;20056;-56
2022/05/09 04:45:34;;;;;;;21.67;19.15;;;10.80;99.90;;;;;;5031794;28;20049;-56
2022/05/09 04:48:01;;;;;;;21.10;15.93;;;10.90;99.90;;;;;;5031964;28;20029;-52
2022/05/09 04:50:29;;;;;;;19.63;14.70;;;11.00;99.90;;;;;;5031817;28;20044;-56
2022/05/09 04:52:55;;;;;;;20.23;12.80;;;11.20;99.90;;;;;;5031854;28;20049;-57
2022/05/09 04:55:21;;;;;;;13.60;12.20;;;11.30;99.90;;;;;;5031597;28;20026;-56
2022/05/09 04:57:49;;;;;;;14.25;12.88;;;11.30;99.90;;;;;;5030332;28;20084;-56
2022/05/09 05:00:17;;;;;;;14.43;12.95;;;11.30;99.90;;;;;;5030529;28;20072;-57
2022/05/09 05:02:43;;;;;;;15.50;13.77;;;11.30;99.90;;;;;;5030586;28;20042;-55
2022/05/09 05:05:10;;;;;;;17.98;14.13;;;11.30;99.90;;;;;;5030573;28;20026;-54
2022/05/09 05:07:36;;;;;;;17.13;15.27;;;11.20;99.90;;;;;;5031326;28;20066;-56
2022/05/09 05:10:02;;;;;;;17.95;14.93;;;11.30;99.90;;;;;;5031260;28;20021;-58
2022/05/09 05:12:29;;;;;;;19.58;15.25;;;11.40;99.90;;;;;;5031265;28;20133;-56
2022/05/09 05:14:55;;;;;;;17.38;15.52;;;11.40;99.90;;;;;;5031300;28;20013;-58
2022/05/09 05:17:20;;;;;;;22.30;15.77;;;11.50;99.90;;;;;;5031294;28;20083;-57
2022/05/09 05:19:48;;;;;;;19.10;14.63;;;11.40;99.90;;;;;;5029966;28;20103;-57
2022/05/09 05:22:15;;;;;;;14.73;13.15;;;11.50;99.90;;;;;;5031453;28;20036;-57
2022/05/09 05:24:44;;;;;;;16.10;14.13;;;11.70;99.90;;;;;;5031284;28;20025;-58
2022/05/09 05:27:11;;;;;;;16.50;14.88;;;11.80;99.90;;;;;;5031359;28;20079;-56
2022/05/09 05:29:37;;;;;;;17.40;15.15;;;11.80;99.90;;;;;;5031257;28;20049;-56
2022/05/09 05:32:17;;;;;;;21.60;16.00;;;11.80;99.90;;;;;;5031297;28;20040;-57
2022/05/09 05:34:42;;;;;;;22.90;16.65;;;11.80;99.90;;;;;;5031304;28;20036;-58
2022/05/09 05:37:08;;;;;;;19.30;15.82;;;11.90;99.90;;;;;;5031371;28;20018;-58
2022/05/09 05:39:36;;;;;;;21.27;16.38;;;11.90;99.90;;;;;;5031174;28;20028;-58
2022/05/09 05:42:04;;;;;;;20.58;16.20;;;12.00;99.90;;;;;;5031150;28;20026;-57
2022/05/09 05:44:29;;;;;;;18.17;15.85;;;12.30;99.90;;;;;;5031056;28;20095;-54
2022/05/09 05:46:55;;;;;;;18.95;17.05;;;12.50;99.90;;;;;;5031382;28;20649;-58
2022/05/09 05:49:20;;;;;;;16.63;14.73;;;12.50;99.90;;;;;;5031298;28;20029;-57
2022/05/09 05:51:46;;;;;;;14.35;12.95;;;12.80;99.90;;;;;;5029868;28;20037;-57
2022/05/09 05:54:12;;;;;;;17.10;15.30;;;13.00;99.90;;;;;;5031180;28;20044;-55
2022/05/09 05:56:37;;;;;;;16.30;13.75;;;13.10;99.90;;;;;;5031064;28;20116;-55
2022/05/09 05:59:04;;;;;;;17.92;15.45;;;13.10;99.90;;;;;;5031178;28;20041;-57
2022/05/09 06:01:30;;;;;;;16.55;14.85;;;13.10;99.90;;;;;;5030949;28;20029;-57
2022/05/09 06:03:56;;;;;;;18.95;14.95;;;13.30;99.90;;;;;;5031165;28;20480;-58
2022/05/09 06:06:21;;;;;;;25.75;17.20;;;13.50;99.90;;;;;;5031104;28;20029;-57
2022/05/09 06:08:48;;;;;;;24.77;19.10;;;13.60;99.90;;;;;;5031290;28;20053;-57
2022/05/09 06:11:14;;;;;;;24.35;18.10;;;13.80;99.90;;;;;;5034855;28;20033;-58
2022/05/09 06:13:40;;;;;;;20.33;16.65;;;13.90;99.90;;;;;;5034472;28;20030;-56
2022/05/09 06:16:06;;;;;;;26.38;16.17;;;14.00;99.90;;;;;;5034802;28;20105;-56
2022/05/09 06:18:32;;;;;;;20.25;15.25;;;14.10;99.90;;;;;;5034427;28;20097;-53
2022/05/09 06:20:58;;;;;;;21.15;15.77;;;14.10;99.90;;;;;;5034581;28;20038;-57
2022/05/09 06:23:25;;;;;;;22.27;15.93;;;14.30;99.90;;;;;;5034602;28;20473;-57
2022/05/09 06:25:51;;;;;;;17.17;15.38;;;14.30;99.90;;;;;;5033165;28;20025;-54
2022/05/09 06:28:18;;;;;;;18.13;15.35;;;14.40;99.90;;;;;;5034559;28;20380;-58
2022/05/09 06:30:44;;;;;;;15.82;14.15;;;14.60;99.90;;;;;;5034310;28;20107;-57
2022/05/09 06:33:10;;;;;;;20.13;15.77;;;14.60;99.90;;;;;;5034424;28;20064;-58
2022/05/09 06:35:41;;;;;;;16.85;14.70;;;14.60;99.90;;;;;;5034290;28;20476;-55
2022/05/09 06:38:07;;;;;;;18.27;14.25;;;14.70;99.90;;;;;;5034315;28;20087;-58
2022/05/09 06:40:35;;;;;;;21.48;13.25;;;14.90;99.90;;;;;;5034125;28;20517;-58
2022/05/09 06:43:03;;;;;;;21.42;14.23;;;14.80;99.90;;;;;;5034268;28;20074;-58
2022/05/09 06:45:30;;;;;;;18.90;14.68;;;14.90;99.90;;;;;;5034090;28;20028;-53
2022/05/09 06:47:56;;;;;;;21.38;14.35;;;15.20;99.90;;;;;;5034279;28;20021;-55
2022/05/09 06:50:31;;;;;;;21.77;14.40;;;15.10;99.90;;;;;;5034080;28;20030;-55
2022/05/09 06:52:58;;;;;;;24.65;14.95;;;15.20;99.90;;;;;;5034262;28;20040;-57
2022/05/09 06:55:24;;;;;;;17.17;14.55;;;15.30;99.90;;;;;;5033885;28;20032;-54
2022/05/09 06:57:50;;;;;;;27.75;14.68;;;15.20;99.90;;;;;;5032622;28;20033;-55
2022/05/09 07:00:24;;;;;;;16.00;14.32;;;15.40;99.90;;;;;;5033885;28;20030;-56
2022/05/09 07:02:50;;;;;;;18.15;14.77;;;15.50;99.90;;;;;;5033772;28;20028;-58
2022/05/09 07:05:18;;;;;;;19.95;15.00;;;15.50;99.90;;;;;;5034026;28;20377;-57
2022/05/09 07:07:45;;;;;;;20.63;15.95;;;15.70;99.90;;;;;;5033639;28;20026;-58
2022/05/09 07:10:13;;;;;;;17.05;14.38;;;15.70;99.90;;;;;;5033753;28;20057;-55
2022/05/09 07:12:49;;;;;;;23.92;14.85;;;15.80;99.90;;;;;;5033654;28;20540;-57
2022/05/09 07:15:22;;;;;;;17.98;14.57;;;15.90;99.90;;;;;;5033732;28;20017;-56
2022/05/09 07:17:50;;;;;;;20.20;15.50;;;15.80;99.90;;;;;;5033391;28;20496;-57
2022/05/09 07:20:17;;;;;;;19.95;16.15;;;15.80;99.90;;;;;;5033119;28;20041;-58
2022/05/09 07:22:43;;;;;;;19.55;15.45;;;15.90;99.90;;;;;;5033398;28;20014;-58
2022/05/09 07:25:13;;;;;;;20.58;14.50;;;16.10;99.90;;;;;;5033501;28;20527;-55
2022/05/09 07:27:42;;;;;;;20.92;15.30;;;16.10;99.90;;;;;;5033325;28;20025;-55
2022/05/09 07:30:09;;;;;;;17.08;14.57;;;16.10;99.90;;;;;;5033408;28;20017;-56
2022/05/09 07:32:36;;;;;;;20.95;14.23;;;16.00;99.90;;;;;;5033195;28;20029;-58
2022/05/09 07:35:03;;;;;;;17.35;14.85;;;16.10;99.90;;;;;;5033276;28;20022;-57
2022/05/09 07:37:28;;;;;;;22.15;14.55;;;16.20;99.90;;;;;;5033121;28;20028;-57
2022/05/09 07:39:54;;;;;;;17.23;13.77;;;16.50;99.90;;;;;;5031709;28;20021;-59
2022/05/09 07:42:20;;;;;;;26.50;15.48;;;16.60;99.90;;;;;;5033190;28;20056;-58
2022/05/09 07:44:45;;;;;;;14.23;12.68;;;16.80;99.90;;;;;;5032877;28;20048;-58
2022/05/09 07:47:11;;;;;;;23.02;13.90;;;16.80;99.90;;;;;;5033067;28;20046;-59
2022/05/09 07:49:37;;;;;;;15.73;13.32;;;16.70;99.90;;;;;;5032853;28;20026;-57
2022/05/09 07:52:05;;;;;;;21.27;13.75;;;16.90;99.90;;;;;;5033039;28;20025;-54
2022/05/09 07:54:31;;;;;;;32.03;14.63;;;17.20;99.90;;;;;;5032655;28;20068;-59
2022/05/09 07:56:57;;;;;;;19.77;14.30;;;17.10;99.90;;;;;;5032860;28;20013;-58
2022/05/09 07:59:22;;;;;;;18.27;12.80;;;17.20;99.90;;;;;;5032685;28;20364;-57
2022/05/09 08:01:48;;;;;;;25.25;13.38;;;17.40;99.90;;;;;;5032488;28;20040;-56
2022/05/09 08:04:14;;;;;;;20.75;13.20;;;17.60;99.90;;;;;;5032777;28;20496;-57
2022/05/09 08:06:40;;;;;;;19.40;13.95;;;17.40;99.90;;;;;;5032537;28;20108;-57
2022/05/09 08:09:06;;;;;;;23.50;14.23;;;17.40;99.90;;;;;;5032525;28;20025;-56
2022/05/09 08:11:31;;;;;;;15.52;12.35;;;17.40;99.90;;;;;;5032524;28;20060;-56
2022/05/09 08:13:57;;;;;;;17.30;13.00;;;17.40;99.90;;;;;;5032449;28;20067;-59
2022/05/09 08:16:26;;;;;;;18.75;13.43;;;17.70;99.90;;;;;;5032795;28;20496;-57
2022/05/09 08:18:52;;;;;;;20.80;14.60;;;17.90;99.90;;;;;;5032178;28;20119;-54
2022/05/09 08:21:18;;;;;;;30.95;15.18;;;18.00;99.90;;;;;;5032292;28;20025;-55
2022/05/09 08:23:44;;;;;;;35.85;24.50;;;18.20;99.90;;;;;;5031645;28;20661;-57
2022/05/09 08:26:11;;;;;;;29.42;25.40;;;18.40;99.90;;;;;;5030938;28;20021;-59
2022/05/09 08:28:37;;;;;;;19.30;15.23;;;18.60;99.90;;;;;;5031126;28;20718;-57
2022/05/09 08:31:03;;;;;;;16.23;13.00;;;18.70;99.90;;;;;;5030881;28;20061;-55
2022/05/09 08:33:30;;;;;;;18.42;14.38;;;18.40;99.90;;;;;;5030595;28;20029;-57
2022/05/09 08:35:56;;;;;;;23.80;14.38;;;18.50;99.90;;;;;;5031820;28;20017;-57
2022/05/09 08:38:22;;;;;;;16.90;14.77;;;18.20;99.90;;;;;;5031088;28;20473;-56
2022/05/09 08:40:56;;;;;;;19.27;13.75;;;18.20;99.90;;;;;;5030889;28;20025;-55
2022/05/09 08:43:25;;;;;;;19.38;15.23;;;18.40;99.90;;;;;;5031120;28;20495;-58
2022/05/09 08:46:12;;;;;;;17.42;15.27;;;18.40;99.90;;;;;;5031990;28;20576;-55
2022/05/09 08:48:48;;;;;;;17.20;14.95;;;18.50;99.90;;;;;;5031814;28;20022;-58
2022/05/09 08:51:40;;;;;;;16.10;14.40;;;18.60;99.90;;;;;;5031875;28;20029;-54
2022/05/09 08:54:09;;;;;;;18.83;15.52;;;18.60;99.90;;;;;;5031880;28;20041;-56
2022/05/09 08:56:36;;;;;;;25.55;14.48;;;18.70;99.90;;;;;;5031614;28;20029;-52
2022/05/09 08:59:09;;;;;;;16.90;13.75;;;18.60;99.90;;;;;;5031926;28;20500;-58
2022/05/09 09:01:58;;;;;;;22.42;14.63;;;18.80;99.90;;;;;;5031405;28;20117;-57
2022/05/09 09:04:29;;;;;;;18.20;15.82;;;19.20;99.90;;;;;;5031747;28;20121;-57
2022/05/09 09:07:13;;;;;;;15.50;13.05;;;19.20;99.90;;;;;;5031626;28;20024;-55
2022/05/09 09:09:45;;;;;;;27.30;14.55;;;19.50;99.90;;;;;;5031518;28;20388;-56
2022/05/09 09:12:31;;;;;;;16.60;12.80;;;19.70;99.90;;;;;;5031521;28;20025;-58
2022/05/09 09:15:11;;;;;;;21.25;14.55;;;20.10;99.90;;;;;;5031614;28;20031;-56
2022/05/09 09:17:57;;;;;;;21.27;14.55;;;20.00;99.90;;;;;;5031293;28;20041;-56
2022/05/09 09:20:54;;;;;;;18.30;14.73;;;20.00;99.90;;;;;;5031448;28;20033;-52
2022/05/09 09:23:31;;;;;;;14.68;12.90;;;20.20;99.90;;;;;;5031528;28;20366;-56
2022/05/09 09:26:14;;;;;;;13.65;12.20;;;20.60;99.90;;;;;;5031674;28;20430;-56
2022/05/09 09:29:10;;;;;;;17.20;12.48;;;20.70;99.90;;;;;;5024815;28;20026;-57
2022/05/09 09:31:41;;;;;;;20.88;12.30;;;20.80;99.90;;;;;;5010115;28;20068;-56
2022/05/09 09:34:37;;;;;;;14.25;12.75;;;21.10;99.90;;;;;;5011714;28;20072;-59
2022/05/09 09:37:19;;;;;;;19.13;12.90;;;20.90;99.90;;;;;;5009928;28;20038;-58
2022/05/09 09:39:45;;;;;;;16.67;12.88;;;21.20;99.90;;;;;;5010858;28;20022;-59
2022/05/09 09:42:11;;;;;;;19.83;12.40;;;21.30;99.90;;;;;;5011241;28;20022;-57
2022/05/09 09:44:43;;;;;;;19.38;13.80;;;21.60;99.90;;;;;;5014983;28;20030;-56
2022/05/09 09:47:11;;;;;;;22.48;13.57;;;21.60;99.90;;;;;;5015572;28;20136;-57
2022/05/09 09:49:43;;;;;;;15.90;13.55;;;21.50;99.90;;;;;;5015292;28;20026;-58
2022/05/09 09:52:26;;;;;;;18.23;11.85;;;21.30;99.90;;;;;;5015565;28;20060;-55
2022/05/09 09:54:59;;;;;;;20.40;12.82;;;21.50;99.90;;;;;;5047305;28;20029;-58
2022/05/09 09:57:32;;;;;;;16.00;12.07;;;21.60;99.90;;;;;;5015393;28;20045;-57
2022/05/09 10:00:19;;;;;;;14.63;10.57;;;21.90;99.90;;;;;;5015262;28;20115;-57
2022/05/09 10:02:50;;;;;;;17.15;10.45;;;22.20;98.30;;;;;;5015082;28;20080;-56
2022/05/09 10:05:19;;;;;;;15.45;10.95;;;22.00;96.40;;;;;;5015303;28;20080;-59
2022/05/09 10:07:45;;;;;;;19.33;10.70;;;22.10;96.50;;;;;;5014918;28;20026;-56
2022/05/09 10:10:24;;;;;;;16.63;10.65;;;22.00;97.10;;;;;;5015136;28;20049;-56
2022/05/09 10:12:56;;;;;;;12.90;9.55;;;22.30;97.60;;;;;;5014872;28;20029;-59
2022/05/09 10:15:38;;;;;;;14.63;9.15;;;22.10;95.10;;;;;;5015096;28;20026;-58
2022/05/09 10:18:23;;;;;;;11.23;8.85;;;22.00;95.60;;;;;;5014901;28;20096;-58
2022/05/09 10:20:52;;;;;;;20.45;10.10;;;22.50;94.10;;;;;;5014790;28;20036;-58
2022/05/09 10:26:21;;;;;;;10.35;8.57;;;22.60;94.50;;;;;;5014859;28;20037;-59
2022/05/09 10:28:55;;;;;;;12.25;8.18;;;22.60;93.00;;;;;;5014587;28;20028;-58
2022/05/09 10:31:27;;;;;;;10.20;7.97;;;22.70;93.80;;;;;;5014651;28;20049;-58
2022/05/09 10:34:00;;;;;;;13.60;9.18;;;22.80;93.00;;;;;;5014568;28;20041;-56
2022/05/09 10:36:37;;;;;;;;;;;23.10;93.80;;;;;;5015037;28;20041;-57
2022/05/09 10:39:08;;;;;;;9.68;8.73;;;23.30;93.30;;;;;;5014733;28;20285;-58
2022/05/09 10:41:41;;;;;;;12.05;10.15;;;23.20;92.30;;;;;;5014290;28;20025;-59
2022/05/09 10:44:17;;;;;;;11.27;10.00;;;23.30;92.80;;;;;;5014572;28;20018;-57
2022/05/09 10:46:54;;;;;;;12.80;10.10;;;22.80;91.30;;;;;;5014330;28;20463;-56
2022/05/09 10:49:24;;;;;;;11.75;10.05;;;22.80;92.70;;;;;;5014342;28;20014;-58
2022/05/09 10:52:27;;;;;;;16.85;9.30;;;23.10;92.90;;;;;;5045822;28;20084;-59
2022/05/09 10:55:01;;;;;;;13.35;9.95;;;23.70;93.80;;;;;;5013778;28;20489;-57
2022/05/09 10:57:50;;;;;;;15.30;10.20;;;23.80;90.20;;;;;;5012842;28;20037;-55
2022/05/09 11:00:23;;;;;;;18.67;11.48;;;24.00;90.70;;;;;;5014142;28;20025;-57
2022/05/09 11:02:54;;;;;;;16.73;11.48;;;23.90;90.90;;;;;;5014055;28;20029;-57
2022/05/09 11:05:24;;;;;;;20.08;10.77;;;23.60;88.40;;;;;;5014311;28;20018;-57
2022/05/09 11:08:10;;;;;;;11.98;9.82;;;23.30;90.80;;;;;;5014082;28;20022;-59
2022/05/09 11:10:43;;;;;;;22.75;9.30;;;23.70;91.30;;;;;;5013798;28;20073;-55
2022/05/09 11:13:34;;;;;;;12.35;8.90;;;23.70;90.30;;;;;;5013957;28;20026;-57
2022/05/09 11:16:15;;;;;;;15.00;8.30;;;23.40;85.70;;;;;;5013843;28;20042;-58
2022/05/09 11:19:17;;;;;;;11.48;7.90;;;23.60;87.00;;;;;;5013538;28;20128;-58
2022/05/09 11:21:55;;;;;;;10.55;7.30;;;24.00;86.40;;;;;;5013507;28;20037;-59
2022/05/09 11:24:45;;;;;;;8.50;6.80;;;24.20;81.90;;;;;;5013815;28;20613;-59
2022/05/09 11:27:19;;;;;;;13.98;7.30;;;23.90;79.90;;;;;;5013769;28;20026;-57
2022/05/09 11:30:15;;;;;;;7.80;6.70;;;24.40;79.80;;;;;;5013537;28;20026;-59
2022/05/09 11:32:43;;;;;;;13.98;7.05;;;24.90;84.70;;;;;;5013225;28;20026;-57
2022/05/09 11:35:27;;;;;;;10.70;6.38;;;24.70;77.70;;;;;;5013627;28;20026;-59
2022/05/09 11:38:17;;;;;;;7.85;5.60;;;24.60;82.90;;;;;;5013467;28;20105;-55
2022/05/09 11:41:01;;;;;;;16.20;7.45;;;25.00;80.20;;;;;;5013172;28;20477;-59
2022/05/09 11:43:52;;;;;;;12.95;7.07;;;25.00;79.60;;;;;;5013211;28;20429;-59
2022/05/09 11:46:48;;;;;;;15.10;6.00;;;25.30;79.80;;;;;;5013266;28;20030;-55
2022/05/09 11:49:49;;;;;;;8.88;5.70;;;25.70;76.90;;;;;;5013351;28;20018;-56
2022/05/09 11:52:26;;;;;;;6.38;5.30;;;26.20;70.40;;;;;;5013140;28;20026;-59
2022/05/09 11:54:53;;;;;;;6.85;5.10;;;27.10;69.20;;;;;;5013206;28;20037;-59
2022/05/09 11:57:29;;;;;;;12.23;5.95;;;27.60;62.30;;;;;;5013182;28;20026;-58
2022/05/09 11:59:58;;;;;;;9.25;4.63;;;26.70;61.50;;;;;;5013078;28;20105;-56
2022/05/09 12:02:54;;;;;;;8.38;4.22;;;26.70;60.80;;;;;;5012811;28;20029;-60
2022/05/09 12:05:26;;;;;;;8.93;4.32;;;27.50;60.30;;;;;;5013180;28;20034;-58
2022/05/09 12:08:15;;;;;;;8.93;3.70;;;28.90;57.80;;;;;;5011899;28;20022;-55
2022/05/09 12:10:44;;;;;;;6.90;3.53;;;29.50;56.20;;;;;;5009606;28;20042;-57
2022/05/09 12:13:14;;;;;;;4.32;2.78;;;28.70;50.80;;;;;;5012155;28;20060;-55
2022/05/09 12:15:51;;;;;;;9.30;3.60;;;29.40;50.10;;;;;;5011783;28;20037;-56
2022/05/09 12:18:25;;;;;;;5.55;3.53;;;29.70;50.00;;;;;;5011615;28;20050;-57
2022/05/09 12:20:55;;;;;;;9.25;3.72;;;30.20;48.80;;;;;;5011725;28;20120;-57
2022/05/09 12:23:39;;;;;;;6.93;3.25;;;29.90;47.30;;;;;;5011923;28;20029;-57
2022/05/09 12:26:07;;;;;;;5.88;3.33;;;29.90;47.00;;;;;;5011980;28;20145;-57
2022/05/09 12:28:36;;;;;;;7.78;3.65;;;29.80;46.70;;;;;;5011443;28;20018;-58
2022/05/09 12:31:25;;;;;;;6.63;3.78;;;30.50;47.90;;;;;;5011668;28;20424;-58
2022/05/09 12:33:53;;;;;;;10.35;3.70;;;30.30;46.40;;;;;;5011540;28;20445;-57
2022/05/09 12:36:22;;;;;;;9.38;3.72;;;30.60;46.20;;;;;;5011402;28;20465;-58
2022/05/09 12:38:52;;;;;;;4.40;2.92;;;31.30;47.00;;;;;;5011458;28;20033;-57
2022/05/09 12:41:28;;;;;;;7.22;3.72;;;30.80;45.00;;;;;;5012108;28;20026;-57
2022/05/09 12:44:05;;;;;;;9.48;3.38;;;31.20;46.20;;;;;;5012234;28;20477;-55
2022/05/09 12:46:36;;;;;;;15.23;4.28;;;31.50;43.70;;;;;;5011072;28;20391;-57
2022/05/09 12:49:06;;;;;;;10.23;3.58;;;30.90;42.40;;;;;;5010186;28;20022;-58
2022/05/09 12:51:39;;;;;;;6.45;3.58;;;30.90;44.20;;;;;;5010811;28;20114;-55
2022/05/09 12:54:11;;;;;;;11.00;4.00;;;30.90;41.60;;;;;;5011255;28;20029;-58
2022/05/09 12:56:45;;;;;;;10.60;4.70;;;30.80;43.00;;;;;;5011820;28;20030;-58